Kane - southern half: Past 24 Hour Conditions

 

Norman Wells Airport

08:00 AM MDT 23 July 2014
This table is a summary of hourly weather conditions for the past 24 hours.
Date / Time
(MDT)
Wind(knots) Conditions Visibility(km) Pressure(kPa) Air tempC) Relative humidity(%) Dew pointC) Humidex
23 July 2014
8:00 SE 4 Partly Cloudy 48 100.5 20 69 14 *
7:00 N 2 Partly Cloudy 48 100.5 18 76 14 *
6:00 NE 2 Partly Cloudy 48 100.5 16 83 13 *
5:00 calm Partly Cloudy 48 100.5 18 78 14 *
4:00 ESE 6 Partly Cloudy 48 100.6 19 72 14 *
3:00 E 7 Partly Cloudy 48 100.6 21 57 13 *
2:00 E 6 Mainly Clear 48 100.6 23 54 13 25
1:00 E 7 gust 15 Mainly Clear 48 100.7 24 51 13 26
0:00 E 6 Mainly Sunny 48 100.7 24 49 13 27
22 July 2014
23:00 E 7 Partly Cloudy 48 100.7 25 44 12 27
22:00 E 11 gust 16 Mainly Sunny 48 100.8 27 38 11 29
21:00 ESE 12 gust 18 Mainly Sunny 48 100.8 27 36 11 29
20:00 ESE 14 Mainly Sunny 48 100.8 28 34 11 30
19:00 ESE 14 Mainly Sunny 48 100.9 29 33 11 30
18:00 ESE 11 Mainly Sunny 48 101.0 29 35 12 31
17:00 SE 8 Mainly Sunny 48 101.1 28 39 13 30
16:00 SE 10 Mainly Sunny 48 101.1 27 41 12 29
15:00 ESE 9 Mainly Sunny 48 101.2 26 45 13 28
14:00 SE 8 Mainly Sunny 48 101.3 25 50 14 28
13:00 SE 9 Mainly Sunny 48 101.3 23 51 12 25
12:00 SE 6 Mainly Sunny 48 101.4 22 59 13 25
11:00 SE 5 Mainly Sunny 48 101.4 19 67 13 *
10:00 SE 4 Mainly Sunny 48 101.4 18 75 13 *
9:00 SSE 3 Partly Cloudy 48 101.4 17 78 13 *
8:00 WNW 2 Mainly Sunny 48 101.5 16 83 13 *
 
Map of Arctic - Western Arctic marine weather areas Herschel Island Komakuk Beach Shingle Point Airport Aklavik Airport Cape Parry Airport Fort Good Hope Airport Tulita Airport Inuvik Airport Keats Point Norman Wells Airport Paulatuk Airport Pelly Island Tuktoyaktuk Airport Kugluktuk Airport Gjoa Haven Airport Hat Island Kugaaruk Airport Shepherd Bay Airport CFS Alert Arctic Bay Cambridge Bay Airport Cape Peel West Eureka Airport Grise Fiord Airport Hall Beach Airport Igloolik Airport Isachsen Pond Inlet Airport Rea Point Repulse Bay Airport Resolute Airport Stefansson Island Taloyoak Airport Aulavik National Park Ulukhaktok Airport Sachs Harbour Airport Thomsen River Liverpool Bay Little Chicago Storm Hills Croker River Mould Bay Bathurst Inlet Fort Ross Gateshead Island Svartevaeg
Legend: buoyBuoy land stationLand Station » US Marine Weather